createdAt,value
2023-01-17T00:02:05.823Z,4.19
2023-01-17T00:05:30.649Z,4.18
2023-01-17T00:08:50.837Z,4.21
2023-01-17T00:11:53.493Z,4.17
2023-01-17T00:14:57.728Z,4.16
2023-01-17T00:18:00.703Z,4.13
2023-01-17T00:21:22.239Z,4.13
2023-01-17T00:24:42.209Z,4.12
2023-01-17T00:27:43.652Z,4.13
2023-01-17T00:30:45.439Z,4.14
2023-01-17T00:33:46.899Z,4.11
2023-01-17T00:36:49.696Z,4.11
2023-01-17T00:39:51.222Z,4.06
2023-01-17T08:56:08.359Z,4.46
2023-01-17T08:59:11.926Z,4.80
2023-01-17T09:02:15.817Z,4.92
2023-01-17T09:05:18.308Z,5.06
2023-01-17T09:08:20.780Z,5.06
2023-01-17T09:11:24.610Z,5.07
2023-01-17T09:14:27.250Z,4.99
2023-01-17T09:17:29.795Z,5.04
2023-01-17T09:36:59.734Z,4.95
2023-01-17T09:40:02.253Z,5.08
2023-01-17T09:43:08.761Z,5.21
2023-01-17T09:46:22.461Z,5.25
2023-01-17T10:01:19.445Z,4.76
2023-01-17T10:04:45.738Z,4.95
2023-01-17T10:08:04.805Z,4.94
2023-01-17T10:11:24.755Z,5.01
2023-01-17T10:25:55.543Z,4.85
2023-01-17T10:29:03.436Z,4.96
2023-01-17T10:32:06.731Z,5.16
2023-01-17T10:35:21.107Z,5.13
2023-01-17T10:38:30.897Z,5.06
2023-01-17T10:41:39.551Z,5.23
2023-01-17T10:44:49.140Z,5.29
2023-01-17T10:48:02.288Z,5.36
2023-01-17T10:51:14.616Z,5.52
2023-01-17T10:54:38.688Z,5.75
2023-01-17T10:57:44.276Z,5.60
2023-01-17T11:00:51.017Z,5.68
2023-01-17T11:03:55.323Z,5.90
2023-01-17T11:07:12.844Z,5.84
2023-01-17T11:10:36.600Z,5.74
2023-01-17T11:13:40.459Z,5.67
2023-01-17T11:16:44.161Z,5.52
2023-01-17T11:19:51.208Z,5.51
2023-01-17T11:23:12.534Z,5.71
2023-01-17T11:26:25.514Z,5.66
2023-01-17T11:29:36.009Z,5.62
2023-01-17T11:32:39.385Z,5.42
2023-01-17T11:35:45.698Z,5.49
2023-01-17T11:39:03.224Z,5.51
2023-01-17T11:42:27.554Z,5.60
2023-01-17T11:45:32.606Z,5.55
2023-01-17T11:48:38.249Z,5.60
2023-01-17T11:51:43.582Z,5.59
2023-01-17T11:54:48.797Z,5.55
2023-01-17T11:57:51.907Z,5.62
2023-01-17T12:01:02.244Z,5.41
2023-01-17T12:04:23.003Z,5.64
2023-01-17T12:07:35.530Z,5.56
2023-01-17T12:10:50.479Z,5.56
2023-01-17T12:14:05.526Z,5.47
2023-01-17T12:17:23.711Z,5.26
2023-01-17T12:20:32.877Z,5.28
2023-01-17T12:23:51.658Z,5.14
2023-01-17T12:27:03.297Z,5.19
2023-01-17T12:30:19.473Z,5.17
2023-01-17T12:33:28.819Z,5.19
2023-01-17T12:36:43.446Z,5.26
2023-01-17T12:39:54.244Z,5.11
2023-01-17T12:43:03.872Z,5.14
2023-01-17T12:46:13.638Z,5.23
2023-01-17T12:49:25.269Z,5.06
2023-01-17T12:52:39.338Z,4.65
2023-01-17T12:55:51.959Z,4.51
2023-01-17T13:28:13.306Z,3.96
2023-01-17T13:31:36.746Z,4.26
2023-01-17T13:34:53.309Z,4.34
2023-01-17T13:38:28.981Z,4.66
2023-01-17T13:41:46.509Z,4.71
2023-01-17T13:50:58.377Z,4.59
2023-01-17T14:26:36.575Z,4.09
2023-01-17T14:29:58.967Z,4.46
2023-01-17T14:33:17.687Z,4.73
2023-01-17T14:36:30.359Z,4.74
2023-01-17T14:39:32.982Z,4.64
2023-01-17T14:42:37.503Z,4.49
2023-01-17T14:45:40.609Z,4.46
2023-01-17T14:48:43.268Z,4.35
